Time,TemperatureF,DewpointF,PressureIn,WindDirection,WindDirectionDegrees,WindSpeedMPH,WindSpeedGustMPH,Humidity,HourlyPrecipIn,Conditions,Clouds,dailyrainin,SoftwareType,DateUTC
2013-05-27 00:13:00,56.4,54.0,30.19,East,98,0.0,0.0,92,0.00,,,0.00,weatherlink.com 1.10,2013-05-27 04:13:00,
2013-05-27 00:28:00,56.1,54.0,30.19,East,98,0.0,0.0,92,0.00,,,0.00,weatherlink.com 1.10,2013-05-27 04:28:00,
2013-05-27 00:43:00,55.8,54.0,30.19,East,98,0.0,0.0,93,0.00,,,0.00,weatherlink.com 1.10,2013-05-27 04:43:00,
2013-05-27 00:58:00,55.5,54.0,30.20,East,98,0.0,0.0,93,0.00,,,0.00,weatherlink.com 1.10,2013-05-27 04:58:00,
2013-05-27 01:13:00,55.2,53.0,30.20,East,98,0.0,0.0,93,0.00,,,0.00,weatherlink.com 1.10,2013-05-27 05:13:00,
2013-05-27 01:28:00,55.0,53.0,30.19,East,98,0.0,0.0,94,0.00,,,0.00,weatherlink.com 1.10,2013-05-27 05:28:00,
2013-05-27 01:43:00,54.9,54.0,30.20,East,98,0.0,0.0,95,0.00,,,0.00,weatherlink.com 1.10,2013-05-27 05:43:00,
2013-05-27 01:58:00,54.6,54.0,30.19,East,98,0.0,0.0,96,0.00,,,0.00,weatherlink.com 1.10,2013-05-27 05:58:00,
2013-05-27 02:13:00,54.3,54.0,30.19,East,98,0.0,0.0,97,0.00,,,0.00,weatherlink.com 1.10,2013-05-27 06:13:00,
2013-05-27 02:28:00,54.2,53.0,30.19,East,98,0.0,0.0,97,0.00,,,0.00,weatherlink.com 1.10,2013-05-27 06:28:00,
2013-05-27 02:43:00,54.0,53.0,30.19,East,98,0.0,0.0,97,0.00,,,0.00,weatherlink.com 1.10,2013-05-27 06:43:00,
2013-05-27 02:58:00,53.6,53.0,30.19,East,98,0.0,0.0,97,0.00,,,0.00,weatherlink.com 1.10,2013-05-27 06:58:00,
2013-05-27 03:13:00,53.3,53.0,30.18,East,98,0.0,0.0,98,0.00,,,0.00,weatherlink.com 1.10,2013-05-27 07:13:00,
2013-05-27 03:28:00,53.3,53.0,30.19,East,98,0.0,0.0,99,0.00,,,0.00,weatherlink.com 1.10,2013-05-27 07:28:00,
2013-05-27 03:43:00,53.1,53.0,30.19,East,98,0.0,0.0,99,0.00,,,0.00,weatherlink.com 1.10,2013-05-27 07:43:00,
2013-05-27 03:58:00,53.0,53.0,30.19,East,98,0.0,0.0,99,0.00,,,0.00,weatherlink.com 1.10,2013-05-27 07:58:00,
2013-05-27 04:13:00,53.0,53.0,30.19,East,98,0.0,0.0,100,0.00,,,0.00,weatherlink.com 1.10,2013-05-27 08:13:00,
2013-05-27 04:28:00,52.8,53.0,30.20,East,98,0.0,0.0,100,0.00,,,0.00,weatherlink.com 1.10,2013-05-27 08:28:00,
2013-05-27 04:43:00,52.4,52.0,30.20,East,98,0.0,0.0,99,0.00,,,0.00,weatherlink.com 1.10,2013-05-27 08:43:00,
2013-05-27 04:58:00,52.0,52.0,30.20,East,98,0.0,0.0,100,0.00,,,0.00,weatherlink.com 1.10,2013-05-27 08:58:00,
2013-05-27 05:13:00,51.9,52.0,30.20,East,98,0.0,0.0,100,0.00,,,0.00,weatherlink.com 1.10,2013-05-27 09:13:00,
2013-05-27 05:28:00,51.8,52.0,30.21,East,98,0.0,0.0,100,0.00,,,0.00,weatherlink.com 1.10,2013-05-27 09:28:00,
2013-05-27 05:43:00,51.6,52.0,30.21,East,98,0.0,0.0,100,0.00,,,0.00,weatherlink.com 1.10,2013-05-27 09:43:00,
2013-05-27 05:58:00,51.2,51.0,30.22,East,98,0.0,0.0,100,0.00,,,0.00,weatherlink.com 1.10,2013-05-27 09:58:00,
2013-05-27 06:13:00,50.8,51.0,30.22,East,98,0.0,0.0,100,0.00,,,0.00,weatherlink.com 1.10,2013-05-27 10:13:00,
2013-05-27 06:28:00,50.8,51.0,30.23,East,98,0.0,0.0,100,0.00,,,0.00,weatherlink.com 1.10,2013-05-27 10:28:00,
2013-05-27 06:43:00,51.0,51.0,30.24,East,98,0.0,0.0,100,0.00,,,0.00,weatherlink.com 1.10,2013-05-27 10:43:00,
2013-05-27 06:58:00,51.4,51.0,30.24,East,98,0.0,0.0,100,0.00,,,0.00,weatherlink.com 1.10,2013-05-27 10:58:00,
2013-05-27 07:13:00,51.9,52.0,30.25,East,98,0.0,0.0,100,0.00,,,0.00,weatherlink.com 1.10,2013-05-27 11:13:00,
2013-05-27 07:28:00,52.2,52.0,30.25,East,98,0.0,0.0,100,0.00,,,0.00,weatherlink.com 1.10,2013-05-27 11:28:00,
2013-05-27 07:43:00,52.9,53.0,30.25,East,98,0.0,0.0,100,0.00,,,0.00,weatherlink.com 1.10,2013-05-27 11:43:00,
2013-05-27 07:58:00,54.1,54.0,30.26,East,98,0.0,0.0,100,0.00,,,0.00,weatherlink.com 1.10,2013-05-27 11:58:00,
2013-05-27 08:13:00,55.9,56.0,30.25,East,98,0.0,0.0,100,0.00,,,0.00,weatherlink.com 1.10,2013-05-27 12:13:00,
2013-05-27 08:29:00,58.4,58.0,30.25,East,98,0.0,1.0,97,0.00,,,0.00,weatherlink.com 1.10,2013-05-27 12:29:00,
2013-05-27 08:44:00,60.9,58.0,30.25,East,98,0.0,1.0,91,0.00,,,0.00,weatherlink.com 1.10,2013-05-27 12:44:00,
2013-05-27 08:59:00,64.7,60.0,30.25,East,98,0.0,0.0,84,0.00,,,0.00,weatherlink.com 1.10,2013-05-27 12:59:00,
2013-05-27 09:14:00,66.1,57.0,30.26,East,98,0.0,1.0,73,0.00,,,0.00,weatherlink.com 1.10,2013-05-27 13:14:00,
2013-05-27 09:29:00,67.2,57.0,30.25,East,98,0.0,2.0,70,0.00,,,0.00,weatherlink.com 1.10,2013-05-27 13:29:00,
2013-05-27 09:44:00,68.2,55.0,30.25,SSW,201,0.0,2.0,64,0.00,,,0.00,weatherlink.com 1.10,2013-05-27 13:44:00,
2013-05-27 09:59:00,69.1,56.0,30.25,South,175,0.0,3.0,64,0.00,,,0.00,weatherlink.com 1.10,2013-05-27 13:59:00,
2013-05-27 10:14:00,69.0,55.0,30.24,ESE,117,3.0,4.0,62,0.00,,,0.00,weatherlink.com 1.10,2013-05-27 14:14:00,
2013-05-27 10:29:00,69.1,55.0,30.24,East,96,3.0,5.0,61,0.00,,,0.00,weatherlink.com 1.10,2013-05-27 14:29:00,
2013-05-27 10:44:00,70.2,56.0,30.23,East,93,1.0,7.0,60,0.00,,,0.00,weatherlink.com 1.10,2013-05-27 14:44:00,
2013-05-27 10:59:00,70.8,56.0,30.23,SE,142,0.0,5.0,60,0.00,,,0.00,weatherlink.com 1.10,2013-05-27 14:59:00,
2013-05-27 11:14:00,71.3,56.0,30.23,ESE,106,3.0,5.0,59,0.00,,,0.00,weatherlink.com 1.10,2013-05-27 15:14:00,
2013-05-27 11:29:00,72.0,55.0,30.22,East,100,3.0,8.0,55,0.00,,,0.00,weatherlink.com 1.10,2013-05-27 15:29:00,
2013-05-27 11:44:00,72.9,57.0,30.22,ESE,121,4.0,6.0,57,0.00,,,0.00,weatherlink.com 1.10,2013-05-27 15:44:00,
2013-05-27 11:59:00,73.0,57.0,30.22,ESE,109,1.0,8.0,57,0.00,,,0.00,weatherlink.com 1.10,2013-05-27 15:59:00,
2013-05-27 12:14:00,73.5,56.0,30.22,ESE,111,1.0,8.0,55,0.00,,,0.00,weatherlink.com 1.10,2013-05-27 16:14:00,
2013-05-27 12:29:00,74.7,57.0,30.21,NE,36,2.0,5.0,55,0.00,,,0.00,weatherlink.com 1.10,2013-05-27 16:29:00,
2013-05-27 12:44:00,75.1,57.0,30.22,ESE,106,0.0,8.0,53,0.00,,,0.00,weatherlink.com 1.10,2013-05-27 16:44:00,
2013-05-27 12:59:00,76.0,56.0,30.21,SE,137,5.0,5.0,51,0.00,,,0.00,weatherlink.com 1.10,2013-05-27 16:59:00,
2013-05-27 13:14:00,76.1,57.0,30.21,SE,141,0.0,5.0,51,0.00,,,0.00,weatherlink.com 1.10,2013-05-27 17:14:00,
2013-05-27 13:29:00,76.6,57.0,30.21,East,95,1.0,5.0,50,0.00,,,0.00,weatherlink.com 1.10,2013-05-27 17:29:00,
2013-05-27 13:44:00,76.8,57.0,30.20,East,96,6.0,9.0,51,0.00,,,0.00,weatherlink.com 1.10,2013-05-27 17:44:00,
2013-05-27 13:59:00,76.4,57.0,30.20,ESE,110,2.0,6.0,52,0.00,,,0.00,weatherlink.com 1.10,2013-05-27 17:59:00,
2013-05-27 14:14:00,77.2,58.0,30.19,ESE,103,0.0,7.0,52,0.00,,,0.00,weatherlink.com 1.10,2013-05-27 18:14:00,
2013-05-27 14:29:00,77.2,59.0,30.18,East,101,4.0,5.0,54,0.00,,,0.00,weatherlink.com 1.10,2013-05-27 18:29:00,
2013-05-27 14:44:00,77.6,60.0,30.18,East,89,3.0,5.0,54,0.00,,,0.00,weatherlink.com 1.10,2013-05-27 18:44:00,
2013-05-27 15:00:00,77.8,59.0,30.17,ESE,116,1.0,5.0,52,0.00,,,0.00,weatherlink.com 1.10,2013-05-27 19:00:00,
2013-05-27 15:15:00,77.6,58.0,30.17,East,100,3.0,5.0,52,0.00,,,0.00,weatherlink.com 1.10,2013-05-27 19:15:00,
2013-05-27 15:30:00,78.1,59.0,30.16,ENE,75,6.0,6.0,53,0.00,,,0.00,weatherlink.com 1.10,2013-05-27 19:30:00,
2013-05-27 15:45:00,78.0,58.0,30.15,SW,220,4.0,5.0,51,0.00,,,0.00,weatherlink.com 1.10,2013-05-27 19:45:00,
2013-05-27 16:00:00,78.6,60.0,30.15,ESE,106,3.0,5.0,53,0.00,,,0.00,weatherlink.com 1.10,2013-05-27 20:00:00,
2013-05-27 16:15:00,79.2,61.0,30.14,ESE,102,4.0,8.0,54,0.00,,,0.00,weatherlink.com 1.10,2013-05-27 20:15:00,
2013-05-27 16:30:00,78.7,61.0,30.14,East,99,1.0,9.0,55,0.00,,,0.00,weatherlink.com 1.10,2013-05-27 20:30:00,
2013-05-27 16:45:00,79.3,61.0,30.13,ESE,104,4.0,5.0,53,0.00,,,0.00,weatherlink.com 1.10,2013-05-27 20:45:00,
2013-05-27 17:00:00,79.2,61.0,30.13,East,87,0.0,5.0,54,0.00,,,0.00,weatherlink.com 1.10,2013-05-27 21:00:00,
2013-05-27 17:15:00,79.8,61.0,30.14,SSE,158,0.0,7.0,53,0.00,,,0.00,weatherlink.com 1.10,2013-05-27 21:15:00,
2013-05-27 17:30:00,80.1,61.0,30.13,SSE,148,0.0,5.0,52,0.00,,,0.00,weatherlink.com 1.10,2013-05-27 21:30:00,
2013-05-27 17:45:00,79.3,61.0,30.13,ESE,111,0.0,6.0,53,0.00,,,0.00,weatherlink.com 1.10,2013-05-27 21:45:00,
2013-05-27 18:00:00,79.6,61.0,30.13,South,175,1.0,4.0,54,0.00,,,0.00,weatherlink.com 1.10,2013-05-27 22:00:00,
2013-05-27 18:15:00,78.8,61.0,30.13,SE,143,2.0,3.0,54,0.00,,,0.00,weatherlink.com 1.10,2013-05-27 22:15:00,
2013-05-27 18:30:00,78.3,62.0,30.12,ESE,106,0.0,3.0,57,0.00,,,0.00,weatherlink.com 1.10,2013-05-27 22:30:00,
2013-05-27 18:45:00,77.8,61.0,30.12,ESE,106,1.0,6.0,56,0.00,,,0.00,weatherlink.com 1.10,2013-05-27 22:45:00,
2013-05-27 19:00:00,77.4,61.0,30.12,ESE,114,0.0,5.0,58,0.00,,,0.00,weatherlink.com 1.10,2013-05-27 23:00:00,
2013-05-27 19:15:00,77.0,61.0,30.12,ESE,106,0.0,4.0,59,0.00,,,0.00,weatherlink.com 1.10,2013-05-27 23:15:00,
2013-05-27 19:30:00,76.6,63.0,30.12,ESE,110,0.0,3.0,62,0.00,,,0.00,weatherlink.com 1.10,2013-05-27 23:30:00,
2013-05-27 19:45:00,76.0,62.0,30.13,ESE,110,0.0,2.0,62,0.00,,,0.00,weatherlink.com 1.10,2013-05-27 23:45:00,
2013-05-27 20:00:00,75.6,63.0,30.13,ESE,110,0.0,0.0,64,0.00,,,0.00,weatherlink.com 1.10,2013-05-28 00:00:00,
2013-05-27 20:15:00,74.4,62.0,30.13,ESE,110,0.0,0.0,66,0.00,,,0.00,weatherlink.com 1.10,2013-05-28 00:15:00,
2013-05-27 20:30:00,73.5,62.0,30.12,ESE,110,0.0,0.0,68,0.00,,,0.00,weatherlink.com 1.10,2013-05-28 00:30:00,
2013-05-27 20:45:00,72.3,62.0,30.12,ESE,110,0.0,0.0,70,0.00,,,0.00,weatherlink.com 1.10,2013-05-28 00:45:00,
2013-05-27 21:00:00,71.1,62.0,30.12,ESE,110,0.0,1.0,74,0.00,,,0.00,weatherlink.com 1.10,2013-05-28 01:00:00,
2013-05-27 21:15:00,70.3,62.0,30.11,ESE,110,0.0,1.0,75,0.00,,,0.00,weatherlink.com 1.10,2013-05-28 01:15:00,
2013-05-27 21:30:00,69.7,62.0,30.11,ESE,110,0.0,0.0,76,0.00,,,0.00,weatherlink.com 1.10,2013-05-28 01:30:00,
2013-05-27 21:45:00,69.1,62.0,30.12,ESE,110,0.0,3.0,78,0.00,,,0.00,weatherlink.com 1.10,2013-05-28 01:45:00,
2013-05-27 22:00:00,68.7,62.0,30.12,ESE,110,0.0,1.0,79,0.00,,,0.00,weatherlink.com 1.10,2013-05-28 02:00:00,
2013-05-27 22:15:00,68.1,62.0,30.13,ESE,110,0.0,1.0,81,0.00,,,0.00,weatherlink.com 1.10,2013-05-28 02:15:00,
2013-05-27 22:30:00,67.4,62.0,30.14,ESE,110,0.0,0.0,83,0.00,,,0.00,weatherlink.com 1.10,2013-05-28 02:30:00,
2013-05-27 22:45:00,66.9,62.0,30.14,ESE,110,0.0,0.0,84,0.00,,,0.00,weatherlink.com 1.10,2013-05-28 02:45:00,
2013-05-27 23:00:00,66.3,62.0,30.14,ESE,110,0.0,0.0,85,0.00,,,0.00,weatherlink.com 1.10,2013-05-28 03:00:00,
2013-05-27 23:15:00,65.8,62.0,30.15,ESE,110,0.0,0.0,86,0.00,,,0.00,weatherlink.com 1.10,2013-05-28 03:15:00,
2013-05-27 23:30:00,65.3,62.0,30.15,ESE,110,0.0,0.0,88,0.00,,,0.00,weatherlink.com 1.10,2013-05-28 03:30:00,
2013-05-27 23:45:00,65.0,61.0,30.15,ESE,110,0.0,0.0,88,0.00,,,0.00,weatherlink.com 1.10,2013-05-28 03:45:00,